createdAt,value
2023-09-27T00:00:10.998Z,100454.78
2023-09-27T00:02:42.038Z,100468.06
2023-09-27T00:05:11.532Z,100466.19
2023-09-27T00:07:40.211Z,100479.91
2023-09-27T00:10:10.514Z,100472.38
2023-09-27T00:12:37.842Z,100469.38
2023-09-27T00:15:05.236Z,100474.94
2023-09-27T00:17:32.230Z,100476.16
2023-09-27T00:19:58.951Z,100474.88
2023-09-27T00:22:25.872Z,100486.06
2023-09-27T00:24:52.796Z,100496.25
2023-09-27T00:27:19.475Z,100496.56
2023-09-27T00:29:46.924Z,100489.84
2023-09-27T00:32:14.149Z,100486.19
2023-09-27T00:34:40.877Z,100499.00
2023-09-27T00:37:07.527Z,100506.41
2023-09-27T00:39:37.127Z,100508.78
2023-09-27T00:42:03.878Z,100507.09
2023-09-27T00:44:30.545Z,100513.13
2023-09-27T00:46:57.804Z,100505.59
2023-09-27T00:49:24.899Z,100495.75
2023-09-27T00:51:52.493Z,100506.44
2023-09-27T00:54:20.136Z,100516.81
2023-09-27T00:56:48.927Z,100524.94
2023-09-27T00:59:17.613Z,100521.94
2023-09-27T01:01:47.035Z,100524.50
2023-09-27T01:04:17.412Z,100513.03
2023-09-27T01:06:45.136Z,100511.22
2023-09-27T01:09:15.048Z,100527.31
2023-09-27T01:11:42.174Z,100518.97
2023-09-27T01:14:08.799Z,100523.66
2023-09-27T01:16:35.486Z,100525.69
2023-09-27T01:19:05.421Z,100524.13
2023-09-27T01:21:32.698Z,100511.59
2023-09-27T01:23:59.414Z,100508.91
2023-09-27T01:26:27.788Z,100527.22
2023-09-27T01:28:54.955Z,100513.59
2023-09-27T01:31:21.767Z,100517.63
2023-09-27T01:33:48.437Z,100513.06
2023-09-27T01:36:15.015Z,100517.97
2023-09-27T01:38:41.667Z,100505.66
2023-09-27T01:41:08.440Z,100512.38
2023-09-27T01:43:35.105Z,100510.00
2023-09-27T01:46:01.839Z,100523.28
2023-09-27T01:48:28.473Z,100505.94
2023-09-27T01:50:55.120Z,100528.72
2023-09-27T01:53:21.758Z,100530.66
2023-09-27T01:55:48.754Z,100527.25
2023-09-27T01:58:15.445Z,100531.72
2023-09-27T02:00:42.038Z,100536.69
2023-09-27T02:03:08.767Z,100529.56
2023-09-27T02:05:35.616Z,100526.22
2023-09-27T02:08:02.502Z,100536.59
2023-09-27T02:10:29.236Z,100538.88
2023-09-27T02:12:55.906Z,100541.13
2023-09-27T02:15:22.619Z,100533.16
2023-09-27T02:17:49.739Z,100532.19
2023-09-27T02:20:21.950Z,100543.47
2023-09-27T02:22:51.853Z,100559.34
2023-09-27T02:25:18.827Z,100557.38
2023-09-27T02:27:45.530Z,100549.53
2023-09-27T02:30:16.144Z,100554.00
2023-09-27T02:32:44.448Z,100524.38
2023-09-27T02:35:12.675Z,100545.88
2023-09-27T02:37:40.722Z,100538.50
2023-09-27T02:40:14.495Z,100541.00
2023-09-27T02:42:42.836Z,100549.56
2023-09-27T02:45:10.453Z,100550.34
2023-09-27T02:47:37.870Z,100553.19
2023-09-27T02:50:06.529Z,100556.88
2023-09-27T02:52:33.568Z,100548.06
2023-09-27T02:55:00.329Z,100565.56
2023-09-27T02:57:26.947Z,100558.25
2023-09-27T02:59:53.583Z,100555.63
2023-09-27T03:02:21.679Z,100565.28
2023-09-27T03:04:48.889Z,100571.66
2023-09-27T03:07:16.760Z,100578.25
2023-09-27T03:09:43.438Z,100585.28
2023-09-27T03:12:10.146Z,100602.06
2023-09-27T03:14:36.754Z,100601.88
2023-09-27T03:17:03.446Z,100584.47
2023-09-27T03:19:30.126Z,100580.53
2023-09-27T03:21:57.404Z,100585.63
2023-09-27T03:24:24.196Z,100590.53
2023-09-27T03:26:50.806Z,100586.97
2023-09-27T03:29:17.450Z,100601.59
2023-09-27T03:31:44.167Z,100581.44
2023-09-27T03:34:10.964Z,100597.06
2023-09-27T03:36:37.573Z,100606.13
2023-09-27T03:39:05.458Z,100609.72
2023-09-27T03:41:34.343Z,100597.84
2023-09-27T03:44:01.312Z,100598.84
2023-09-27T03:46:28.039Z,100606.53
2023-09-27T03:48:54.952Z,100594.78
2023-09-27T03:51:25.617Z,100607.38
2023-09-27T03:53:52.283Z,100616.38
2023-09-27T03:56:19.076Z,100617.31
2023-09-27T03:58:45.740Z,100590.19
2023-09-27T04:01:12.358Z,100621.84
2023-09-27T04:03:39.327Z,100624.56
2023-09-27T04:06:05.986Z,100610.38
2023-09-27T04:08:33.408Z,100611.09
2023-09-27T04:11:05.044Z,100610.78
2023-09-27T04:13:34.035Z,100607.28
2023-09-27T04:16:01.700Z,100605.03
2023-09-27T04:18:29.024Z,100611.03
2023-09-27T04:20:55.762Z,100610.44
2023-09-27T04:23:22.600Z,100624.75
2023-09-27T04:25:49.338Z,100630.22
2023-09-27T04:28:16.066Z,100624.19
2023-09-27T04:30:42.693Z,100623.97
2023-09-27T04:33:09.549Z,100622.91
2023-09-27T04:35:36.237Z,100633.00
2023-09-27T04:38:03.014Z,100639.97
2023-09-27T04:40:30.407Z,100637.59
2023-09-27T04:42:57.011Z,100635.00
2023-09-27T04:45:23.983Z,100647.66
2023-09-27T04:47:51.099Z,100642.41
2023-09-27T04:50:17.983Z,100654.81
2023-09-27T04:52:45.273Z,100658.09
2023-09-27T04:55:13.844Z,100662.06
2023-09-27T04:57:41.761Z,100676.06
2023-09-27T05:00:15.430Z,100675.53
2023-09-27T05:02:42.455Z,100640.06
2023-09-27T05:05:09.927Z,100691.78
2023-09-27T05:07:36.659Z,100675.41
2023-09-27T05:10:03.933Z,100685.25
2023-09-27T05:12:30.593Z,100681.75
2023-09-27T05:15:04.181Z,100702.94
2023-09-27T05:17:30.953Z,100707.88
2023-09-27T05:19:57.608Z,100710.00
2023-09-27T05:22:24.371Z,100686.94
2023-09-27T05:24:51.040Z,100724.41
2023-09-27T05:27:17.641Z,100709.28
2023-09-27T05:29:44.431Z,100697.22
2023-09-27T05:32:11.192Z,100691.94
2023-09-27T05:34:37.818Z,100697.97
2023-09-27T05:37:04.656Z,100714.53
2023-09-27T05:39:31.291Z,100714.19
2023-09-27T05:41:58.109Z,100714.66
2023-09-27T05:44:24.817Z,100713.50
2023-09-27T05:46:51.598Z,100724.16
2023-09-27T05:49:19.589Z,100723.34
2023-09-27T05:51:46.222Z,100716.16
2023-09-27T05:54:12.917Z,100698.59
2023-09-27T05:56:39.682Z,100708.06
2023-09-27T05:59:10.314Z,100701.34
2023-09-27T06:01:37.167Z,100707.22
2023-09-27T06:04:05.018Z,100695.00
2023-09-27T06:06:31.677Z,100693.63
2023-09-27T06:08:58.710Z,100696.19
2023-09-27T06:11:26.018Z,100665.28
2023-09-27T06:13:52.745Z,100702.19
2023-09-27T06:16:20.697Z,100701.47
2023-09-27T06:18:47.364Z,100705.25
2023-09-27T06:21:14.011Z,100709.34
2023-09-27T06:23:41.029Z,100697.94
2023-09-27T06:26:08.707Z,100703.03
2023-09-27T06:28:39.186Z,100709.75
2023-09-27T06:31:07.466Z,100717.81
2023-09-27T06:33:40.620Z,100719.72
2023-09-27T06:36:09.398Z,100713.97
2023-09-27T06:38:36.679Z,100717.25
2023-09-27T06:41:04.136Z,100689.03
2023-09-27T06:43:32.673Z,100705.09
2023-09-27T06:46:02.487Z,100721.09
2023-09-27T06:48:29.475Z,100702.03
2023-09-27T06:50:56.194Z,100724.38
2023-09-27T06:53:26.438Z,100723.28
2023-09-27T06:55:55.314Z,100733.59
2023-09-27T06:58:24.733Z,100727.53
2023-09-27T07:00:53.481Z,100734.44
2023-09-27T07:03:26.213Z,100737.56
2023-09-27T07:05:53.391Z,100738.34
2023-09-27T07:08:20.132Z,100739.63
2023-09-27T07:10:47.382Z,100745.91
2023-09-27T07:13:13.982Z,100736.44
2023-09-27T07:15:40.710Z,100728.47
2023-09-27T07:18:07.631Z,100719.22
2023-09-27T07:20:36.020Z,100719.66
2023-09-27T07:23:05.385Z,100728.16
2023-09-27T07:25:35.720Z,100728.72
2023-09-27T07:28:05.051Z,100736.44
2023-09-27T07:30:36.684Z,100734.06
2023-09-27T07:33:13.325Z,100735.94
2023-09-27T07:35:44.654Z,100740.66
2023-09-27T07:38:12.399Z,100744.72
2023-09-27T07:40:39.609Z,100736.22
2023-09-27T07:43:06.675Z,100722.13
2023-09-27T07:45:36.393Z,100722.03
2023-09-27T07:48:03.467Z,100712.13
2023-09-27T07:50:32.560Z,100710.38
2023-09-27T07:53:12.472Z,100709.22
2023-09-27T07:55:51.928Z,100708.56
2023-09-27T07:58:18.925Z,100707.41
2023-09-27T08:00:45.812Z,100711.28
2023-09-27T08:03:12.713Z,100710.00
2023-09-27T08:05:46.382Z,100703.13
2023-09-27T08:08:14.979Z,100702.59
2023-09-27T08:10:44.754Z,100691.03
2023-09-27T08:13:16.170Z,100690.91
2023-09-27T08:15:44.068Z,100690.81
2023-09-27T08:18:11.013Z,100678.66
2023-09-27T08:20:37.983Z,100691.28
2023-09-27T08:23:05.566Z,100687.81
2023-09-27T08:25:32.413Z,100694.00
2023-09-27T08:27:59.164Z,100701.41
2023-09-27T08:30:25.782Z,100691.41
2023-09-27T08:32:52.834Z,100684.31
2023-09-27T08:35:20.024Z,100683.19
2023-09-27T08:37:47.267Z,100682.31
2023-09-27T08:40:16.946Z,100679.66
2023-09-27T08:42:44.756Z,100688.72
2023-09-27T08:45:16.188Z,100685.13
2023-09-27T08:47:46.507Z,100686.88
2023-09-27T08:50:16.853Z,100689.03
2023-09-27T08:52:49.658Z,100672.81
2023-09-27T08:55:18.324Z,100679.50
2023-09-27T08:57:52.617Z,100677.81
2023-09-27T09:00:23.201Z,100679.22
2023-09-27T09:03:00.005Z,100664.31
2023-09-27T09:05:30.040Z,100668.94
2023-09-27T09:07:59.096Z,100680.53
2023-09-27T09:10:25.809Z,100678.19
2023-09-27T09:12:53.429Z,100666.97
2023-09-27T09:15:42.779Z,100691.66
2023-09-27T09:18:16.262Z,100688.22
2023-09-27T09:20:59.787Z,100685.75
2023-09-27T09:23:34.896Z,100700.22
2023-09-27T09:26:04.739Z,100694.88
2023-09-27T09:28:31.462Z,100697.41
2023-09-27T09:30:58.328Z,100697.84
2023-09-27T09:33:26.462Z,100689.97
2023-09-27T09:35:53.831Z,100698.16
2023-09-27T09:38:30.282Z,100687.91
2023-09-27T09:41:02.062Z,100675.94
2023-09-27T09:43:29.924Z,100661.66
2023-09-27T09:45:57.219Z,100671.09
2023-09-27T09:48:24.794Z,100669.59
2023-09-27T09:50:52.145Z,100685.06
2023-09-27T09:53:20.295Z,100690.69
2023-09-27T09:58:45.994Z,100692.22
2023-09-27T10:01:19.807Z,100687.34
2023-09-27T10:03:50.242Z,100685.28
2023-09-27T10:06:32.484Z,100679.56
2023-09-27T10:09:17.359Z,100675.84
2023-09-27T10:11:47.380Z,100692.84
2023-09-27T10:14:15.584Z,100693.94
2023-09-27T10:16:42.686Z,100697.69
2023-09-27T10:19:09.529Z,100685.84
2023-09-27T10:21:36.218Z,100680.06
2023-09-27T10:24:03.754Z,100683.81
2023-09-27T10:26:30.573Z,100688.94
2023-09-27T10:29:11.723Z,100691.72
2023-09-27T10:31:58.546Z,100687.03
2023-09-27T10:34:28.185Z,100690.09
2023-09-27T10:37:15.002Z,100690.72
2023-09-27T10:39:42.349Z,100683.28
2023-09-27T10:42:09.137Z,100690.28
2023-09-27T10:44:42.879Z,100682.41
2023-09-27T10:47:10.326Z,100690.28
2023-09-27T10:49:41.227Z,100663.38
2023-09-27T10:52:17.743Z,100664.66
2023-09-27T10:54:45.075Z,100666.31
2023-09-27T10:57:13.412Z,100672.00
2023-09-27T10:59:40.479Z,100662.44
2023-09-27T11:02:08.204Z,100660.28
2023-09-27T11:04:37.428Z,100665.84
2023-09-27T11:07:05.190Z,100665.00
2023-09-27T11:09:33.791Z,100650.66
2023-09-27T11:12:00.767Z,100656.16
2023-09-27T11:14:27.439Z,100666.47
2023-09-27T11:16:54.748Z,100657.22
2023-09-27T11:19:28.895Z,100657.25
2023-09-27T11:21:55.705Z,100668.66
2023-09-27T11:24:22.392Z,100671.97
2023-09-27T11:26:49.042Z,100663.38
2023-09-27T11:29:17.329Z,100665.72
2023-09-27T11:31:44.096Z,100658.66
2023-09-27T11:34:19.151Z,100658.50
2023-09-27T11:36:48.205Z,100660.25
2023-09-27T11:39:15.918Z,100642.53
2023-09-27T11:41:43.375Z,100637.28
2023-09-27T11:44:20.209Z,100643.75
2023-09-27T11:46:49.657Z,100623.78
2023-09-27T11:49:18.448Z,100639.53
2023-09-27T11:51:45.581Z,100621.69
2023-09-27T11:54:15.563Z,100617.41
2023-09-27T11:56:42.287Z,100614.06
2023-09-27T11:59:11.867Z,100606.41
2023-09-27T12:01:38.762Z,100609.16
2023-09-27T12:04:07.238Z,100601.94
2023-09-27T12:06:34.954Z,100597.06
2023-09-27T12:09:02.536Z,100581.25
2023-09-27T12:11:29.274Z,100584.59
2023-09-27T12:13:55.980Z,100590.94
2023-09-27T12:16:22.743Z,100585.84
2023-09-27T12:18:49.542Z,100580.47
2023-09-27T12:21:16.339Z,100574.94
2023-09-27T12:23:45.363Z,100579.03
2023-09-27T12:26:13.852Z,100573.47
2023-09-27T12:28:40.669Z,100565.75
2023-09-27T12:31:07.419Z,100565.28
2023-09-27T12:33:36.631Z,100556.66
2023-09-27T12:36:05.347Z,100546.56
2023-09-27T12:38:32.169Z,100533.25
2023-09-27T12:41:01.624Z,100535.13
2023-09-27T12:43:28.493Z,100548.31
2023-09-27T12:45:55.294Z,100541.91
2023-09-27T12:48:22.082Z,100533.25
2023-09-27T12:50:48.867Z,100526.47
2023-09-27T12:53:17.207Z,100524.84
2023-09-27T12:55:44.130Z,100505.91
2023-09-27T12:58:12.740Z,100514.78
2023-09-27T13:00:40.143Z,100505.81
2023-09-27T13:03:08.445Z,100502.34
2023-09-27T13:05:39.663Z,100488.41
2023-09-27T13:08:06.910Z,100471.72
2023-09-27T13:10:34.112Z,100491.47
2023-09-27T13:13:00.765Z,100475.91
2023-09-27T13:15:27.425Z,100472.47
2023-09-27T13:17:54.219Z,100449.41
2023-09-27T13:20:21.148Z,100437.41
2023-09-27T13:22:51.117Z,100449.69
2023-09-27T13:25:18.864Z,100443.84
2023-09-27T13:27:46.466Z,100440.19
2023-09-27T13:30:25.717Z,100438.38
2023-09-27T13:33:04.076Z,100426.25
2023-09-27T13:35:32.836Z,100426.91
2023-09-27T13:38:05.583Z,100424.38
2023-09-27T13:40:32.344Z,100402.63
2023-09-27T13:42:59.156Z,100423.50
2023-09-27T13:45:25.919Z,100408.16
2023-09-27T13:47:52.673Z,100413.59
2023-09-27T13:50:20.156Z,100408.16
2023-09-27T13:52:49.519Z,100410.88
2023-09-27T13:55:16.376Z,100401.56
2023-09-27T13:57:43.110Z,100400.88
2023-09-27T14:00:14.186Z,100401.34
2023-09-27T14:02:43.324Z,100413.09
2023-09-27T14:05:11.021Z,100395.63
2023-09-27T14:07:40.157Z,100391.94
2023-09-27T14:10:09.065Z,100378.00
2023-09-27T14:12:35.873Z,100373.97
2023-09-27T14:15:04.018Z,100382.63
2023-09-27T14:17:31.039Z,100373.69
2023-09-27T14:19:57.809Z,100388.22
2023-09-27T14:22:24.495Z,100391.13
2023-09-27T14:24:51.242Z,100379.06
2023-09-27T14:27:18.408Z,100354.56
2023-09-27T14:29:45.218Z,100366.44
2023-09-27T14:32:12.235Z,100360.88
2023-09-27T14:34:42.748Z,100345.34
2023-09-27T14:37:23.516Z,100344.22
2023-09-27T14:39:50.204Z,100352.16
2023-09-27T14:42:17.289Z,100339.63
2023-09-27T14:44:43.948Z,100347.44
2023-09-27T14:47:10.594Z,100338.13
2023-09-27T14:49:37.267Z,100325.03
2023-09-27T14:52:03.963Z,100326.25
2023-09-27T14:54:30.555Z,100330.09
2023-09-27T14:56:58.492Z,100337.84
2023-09-27T14:59:25.187Z,100310.16
2023-09-27T15:01:54.366Z,100323.63
2023-09-27T15:04:21.161Z,100319.22
2023-09-27T15:06:48.304Z,100327.56
2023-09-27T15:09:15.733Z,100299.53
2023-09-27T15:11:43.432Z,100306.22
2023-09-27T15:14:10.107Z,100292.84
2023-09-27T15:16:36.934Z,100297.28
2023-09-27T15:19:03.847Z,100289.25
2023-09-27T15:21:30.545Z,100277.13
2023-09-27T15:23:57.147Z,100268.19
2023-09-27T15:26:24.267Z,100270.72
2023-09-27T15:28:50.938Z,100258.28
2023-09-27T15:31:17.601Z,100256.25
2023-09-27T15:33:44.246Z,100248.22
2023-09-27T15:36:13.006Z,100250.47
2023-09-27T15:38:44.513Z,100218.69
2023-09-27T15:41:18.838Z,100228.09
2023-09-27T15:43:46.237Z,100218.22
2023-09-27T15:46:15.022Z,100210.03
2023-09-27T15:48:41.886Z,100190.84
2023-09-27T15:51:10.956Z,100177.88
2023-09-27T15:53:38.794Z,100171.78
2023-09-27T15:56:06.794Z,100165.56
2023-09-27T15:58:34.331Z,100148.06
2023-09-27T16:01:05.694Z,100155.00
2023-09-27T16:03:33.293Z,100149.84
2023-09-27T16:06:01.832Z,100147.13
2023-09-27T16:08:29.100Z,100134.16
2023-09-27T16:10:57.368Z,100116.88
2023-09-27T16:13:24.371Z,100115.25
2023-09-27T16:15:52.242Z,100116.47
2023-09-27T16:18:20.781Z,100104.31
2023-09-27T16:20:48.552Z,100083.56
2023-09-27T16:23:16.848Z,100089.41
2023-09-27T16:25:44.492Z,100077.41
2023-09-27T16:28:11.293Z,100076.06
2023-09-27T16:30:40.425Z,100058.22
2023-09-27T16:33:07.305Z,100045.63
2023-09-27T16:35:37.484Z,100047.97
2023-09-27T16:38:04.570Z,100035.88
2023-09-27T16:40:31.886Z,100018.28
2023-09-27T16:42:59.281Z,100014.03
2023-09-27T16:45:26.127Z,100012.75
2023-09-27T16:47:52.894Z,100004.97
2023-09-27T16:50:19.916Z,100018.78
2023-09-27T16:52:46.753Z,99995.22
2023-09-27T16:55:13.423Z,99972.41
2023-09-27T16:57:40.098Z,99968.78
2023-09-27T17:00:11.514Z,99970.59
2023-09-27T17:02:39.422Z,99950.38
2023-09-27T17:05:08.282Z,99948.50
2023-09-27T17:07:38.708Z,99950.38
2023-09-27T17:10:10.275Z,99945.94
2023-09-27T17:12:37.537Z,99943.41
2023-09-27T17:15:07.834Z,99955.09
2023-09-27T17:20:02.798Z,99934.41
2023-09-27T17:22:29.516Z,99941.94
2023-09-27T17:24:56.330Z,99954.34
2023-09-27T17:27:23.234Z,99916.31
2023-09-27T17:29:49.967Z,99926.25
2023-09-27T17:32:16.679Z,99900.44
2023-09-27T17:34:43.366Z,99897.81
2023-09-27T17:37:11.063Z,99875.28
2023-09-27T17:39:37.798Z,99863.81
2023-09-27T17:42:04.606Z,99861.63
2023-09-27T17:44:31.685Z,99859.25
2023-09-27T17:46:59.096Z,99839.06
2023-09-27T17:49:26.933Z,99821.47
2023-09-27T17:51:55.768Z,99815.19
2023-09-27T17:54:23.026Z,99817.53
2023-09-27T17:56:51.661Z,99790.88
2023-09-27T17:59:20.207Z,99788.16
2023-09-27T18:01:47.792Z,99781.97
2023-09-27T18:04:14.609Z,99785.28
2023-09-27T18:06:41.593Z,99804.88
2023-09-27T18:09:08.245Z,99803.44
2023-09-27T18:11:34.875Z,99814.84
2023-09-27T18:14:01.687Z,99820.91
2023-09-27T18:16:28.818Z,99815.41
2023-09-27T18:18:55.597Z,99812.50
2023-09-27T18:21:22.881Z,99813.13
2023-09-27T18:23:52.316Z,99806.16
2023-09-27T18:26:19.330Z,99804.41
2023-09-27T18:28:46.166Z,99793.16
2023-09-27T18:31:13.225Z,99783.56
2023-09-27T18:33:41.053Z,99776.63
2023-09-27T18:36:08.345Z,99777.56
2023-09-27T18:38:35.876Z,99770.00
2023-09-27T18:41:03.601Z,99765.94
2023-09-27T18:43:30.275Z,99751.34
2023-09-27T18:45:59.671Z,99752.59
2023-09-27T18:48:26.666Z,99740.91
2023-09-27T18:50:53.358Z,99727.38
2023-09-27T18:53:19.996Z,99708.72
2023-09-27T18:55:46.719Z,99682.19
2023-09-27T18:58:16.255Z,99652.31
2023-09-27T19:00:43.743Z,99643.44
2023-09-27T19:03:11.470Z,99630.19
2023-09-27T19:05:38.160Z,99627.97
2023-09-27T19:08:05.410Z,99624.09
2023-09-27T19:10:33.580Z,99633.69
2023-09-27T19:13:00.545Z,99616.50
2023-09-27T19:15:27.278Z,99601.53
2023-09-27T19:17:57.855Z,99589.63
2023-09-27T19:20:27.647Z,99576.78
2023-09-27T19:22:54.716Z,99576.88
2023-09-27T19:25:21.829Z,99550.28
2023-09-27T19:27:49.443Z,99558.97
2023-09-27T19:30:17.263Z,99550.97
2023-09-27T19:32:45.242Z,99538.41
2023-09-27T19:35:15.833Z,99538.16
2023-09-27T19:37:43.778Z,99519.31
2023-09-27T19:40:10.981Z,99517.72
2023-09-27T19:42:38.187Z,99513.38
2023-09-27T19:45:06.518Z,99522.31
2023-09-27T19:47:36.281Z,99495.03
2023-09-27T19:50:04.356Z,99482.59
2023-09-27T19:52:31.256Z,99504.09
2023-09-27T19:54:57.978Z,99470.97
2023-09-27T19:57:24.650Z,99439.16
2023-09-27T19:59:51.483Z,99440.22
2023-09-27T20:02:18.255Z,99406.25
2023-09-27T20:04:44.991Z,99404.66
2023-09-27T20:07:11.658Z,99389.13
2023-09-27T20:09:38.629Z,99394.94
2023-09-27T20:12:05.380Z,99363.78
2023-09-27T20:14:32.431Z,99379.28
2023-09-27T20:16:59.336Z,99368.97
2023-09-27T20:19:26.066Z,99365.84
2023-09-27T20:21:56.440Z,99373.19
2023-09-27T20:24:26.994Z,99388.78
2023-09-27T20:26:53.651Z,99374.53
2023-09-27T20:29:20.945Z,99350.56
2023-09-27T20:31:47.791Z,99352.84
2023-09-27T20:34:14.525Z,99347.78
2023-09-27T20:36:42.269Z,99331.53
2023-09-27T20:39:11.609Z,99331.88
2023-09-27T20:41:38.247Z,99289.00
2023-09-27T20:44:06.921Z,99295.09
2023-09-27T20:46:33.755Z,99290.09
2023-09-27T20:49:01.262Z,99271.16
2023-09-27T20:51:28.103Z,99273.28
2023-09-27T20:53:55.265Z,99253.81
2023-09-27T20:56:22.288Z,99250.56
2023-09-27T20:58:49.593Z,99244.91
2023-09-27T21:01:36.920Z,99246.72
2023-09-27T21:04:04.152Z,99222.53
2023-09-27T21:06:31.033Z,99220.75
2023-09-27T21:08:59.015Z,99207.81
2023-09-27T21:11:25.959Z,99197.97
2023-09-27T21:14:01.363Z,99189.13
2023-09-27T21:16:29.486Z,99231.00
2023-09-27T21:18:58.323Z,99215.31
2023-09-27T21:21:25.029Z,99172.72
2023-09-27T21:23:53.362Z,99193.44
2023-09-27T21:26:20.906Z,99176.91
2023-09-27T21:28:47.850Z,99185.63
2023-09-27T21:31:14.986Z,99167.69
2023-09-27T21:33:43.126Z,99184.44
2023-09-27T21:36:09.994Z,99149.91
2023-09-27T21:38:37.190Z,99152.66
2023-09-27T21:41:04.792Z,99131.56
2023-09-27T21:43:33.726Z,99102.28
2023-09-27T21:46:01.137Z,99110.78
2023-09-27T21:48:30.626Z,99108.97
2023-09-27T21:50:57.563Z,99094.34
2023-09-27T21:53:24.465Z,99091.69
2023-09-27T21:55:51.269Z,99083.53
2023-09-27T21:58:17.903Z,99065.63
2023-09-27T22:00:44.523Z,99078.47
2023-09-27T22:03:13.230Z,99077.03
2023-09-27T22:05:40.416Z,99055.59
2023-09-27T22:08:17.496Z,99053.53
2023-09-27T22:10:45.415Z,99028.22
2023-09-27T22:13:24.619Z,99041.56
2023-09-27T22:15:52.851Z,99037.97
2023-09-27T22:18:20.336Z,99008.19
2023-09-27T22:20:48.878Z,99018.03
2023-09-27T22:23:40.457Z,98995.03
2023-09-27T22:26:17.224Z,99008.19
2023-09-27T22:28:46.170Z,98986.16
2023-09-27T22:31:14.219Z,99001.97
2023-09-27T22:33:44.771Z,98981.25
2023-09-27T22:36:13.522Z,98992.84
2023-09-27T22:38:41.012Z,98963.38
2023-09-27T22:41:20.142Z,98945.00
2023-09-27T22:43:50.174Z,98939.03
2023-09-27T22:46:17.101Z,98936.47
2023-09-27T22:48:43.766Z,98920.16
2023-09-27T22:51:10.366Z,98914.50
2023-09-27T22:53:37.410Z,98911.03
2023-09-27T22:56:06.125Z,98890.63
2023-09-27T22:58:35.910Z,98879.81
2023-09-27T23:01:29.100Z,98876.34
2023-09-27T23:03:56.949Z,98882.72
2023-09-27T23:06:24.334Z,98860.94
2023-09-27T23:08:51.310Z,98864.78
2023-09-27T23:11:21.286Z,98841.09
2023-09-27T23:14:05.974Z,98830.06
2023-09-27T23:16:48.679Z,98823.72
2023-09-27T23:19:18.046Z,98815.84
2023-09-27T23:21:48.935Z,98792.91
2023-09-27T23:24:24.530Z,98790.31
2023-09-27T23:27:03.294Z,98800.56
2023-09-27T23:29:30.243Z,98768.75
2023-09-27T23:32:24.112Z,98781.94
2023-09-27T23:34:51.733Z,98780.59
2023-09-27T23:37:19.764Z,98772.00
2023-09-27T23:39:50.386Z,98763.13
2023-09-27T23:42:24.451Z,98750.19
2023-09-27T23:44:52.002Z,98757.56
2023-09-27T23:47:23.562Z,98746.03
2023-09-27T23:49:53.551Z,98745.78
2023-09-27T23:52:24.515Z,98738.13
2023-09-27T23:54:55.652Z,98717.72
2023-09-27T23:57:28.571Z,98701.75
2023-09-27T23:59:56.867Z,98708.28
